createdAt,value
2018-06-08T00:02:11.991Z,14.90
2018-06-08T00:06:16.219Z,14.90
2018-06-08T00:10:20.629Z,14.80
2018-06-08T00:14:24.920Z,14.80
2018-06-08T00:18:29.265Z,14.70
2018-06-08T00:22:33.466Z,14.80
2018-06-08T00:26:37.680Z,14.70
2018-06-08T00:30:41.873Z,14.60
2018-06-08T00:34:46.322Z,14.50
2018-06-08T00:42:54.446Z,14.40
2018-06-08T00:46:58.678Z,14.40
2018-06-08T00:51:02.921Z,14.50
2018-06-08T00:55:07.287Z,14.50
2018-06-08T00:59:11.617Z,14.40
2018-06-08T01:03:16.146Z,14.50
2018-06-08T01:11:24.172Z,14.50
2018-06-08T01:15:28.404Z,14.50
2018-06-08T01:19:35.559Z,14.60
2018-06-08T01:23:39.781Z,14.70
2018-06-08T01:27:44.164Z,14.60
2018-06-08T01:31:48.403Z,14.60
2018-06-08T01:35:52.861Z,14.50
2018-06-08T01:39:57.068Z,14.50
2018-06-08T01:44:01.501Z,14.50
2018-06-08T01:48:05.771Z,14.50
2018-06-08T01:52:09.984Z,14.40
2018-06-08T01:56:14.384Z,14.30
2018-06-08T02:00:18.584Z,14.20
2018-06-08T02:04:22.875Z,14.20
2018-06-08T02:08:27.072Z,14.20
2018-06-08T02:12:31.399Z,14.10
2018-06-08T02:16:35.585Z,14.10
2018-06-08T02:20:40.052Z,14.00
2018-06-08T02:24:44.221Z,13.90
2018-06-08T02:28:48.515Z,13.90
2018-06-08T02:32:52.741Z,13.80
2018-06-08T02:36:57.141Z,13.70
2018-06-08T02:41:01.430Z,13.70
2018-06-08T02:45:05.897Z,13.70
2018-06-08T02:49:10.138Z,13.70
2018-06-08T02:53:14.353Z,13.60
2018-06-08T02:57:18.633Z,13.60
2018-06-08T03:01:22.818Z,13.60
2018-06-08T03:05:27.262Z,13.60
2018-06-08T03:09:31.619Z,13.60
2018-06-08T03:13:37.000Z,13.50
2018-06-08T03:17:41.264Z,13.40
2018-06-08T03:21:45.673Z,13.30
2018-06-08T03:25:49.849Z,13.30
2018-06-08T03:29:57.820Z,13.30
2018-06-08T03:34:02.062Z,13.30
2018-06-08T03:42:10.159Z,13.30
2018-06-08T03:46:14.849Z,13.30
2018-06-08T03:50:19.021Z,13.30
2018-06-08T03:54:23.276Z,13.40
2018-06-08T03:58:27.533Z,13.40
2018-06-08T04:02:31.828Z,13.50
2018-06-08T04:06:36.157Z,13.60
2018-06-08T04:10:40.549Z,13.70
2018-06-08T04:14:45.122Z,13.90
2018-06-08T04:18:49.625Z,13.90
2018-06-08T04:22:53.983Z,14.00
2018-06-08T04:26:58.240Z,14.10
2018-06-08T04:35:06.366Z,14.20
2018-06-08T04:39:10.661Z,14.30
2018-06-08T04:43:14.876Z,14.40
2018-06-08T04:47:19.302Z,14.50
2018-06-08T04:55:27.301Z,14.80
2018-06-08T04:59:31.509Z,14.90
2018-06-08T05:03:35.741Z,15.00
2018-06-08T05:07:39.935Z,15.20
2018-06-08T05:11:44.215Z,15.40
2018-06-08T05:15:48.485Z,15.50
2018-06-08T05:19:52.770Z,15.70
2018-06-08T05:28:01.728Z,16.00
2018-06-08T05:32:06.106Z,16.20
2018-06-08T05:36:10.425Z,16.30
2018-06-08T05:44:18.335Z,16.70
2018-06-08T05:48:22.683Z,17.00
2018-06-08T05:52:26.980Z,17.20
2018-06-08T05:56:31.158Z,17.30
2018-06-08T06:00:35.508Z,17.40
2018-06-08T06:04:39.726Z,17.60
2018-06-08T06:08:44.077Z,17.90
2018-06-08T06:12:48.263Z,18.00
2018-06-08T06:16:52.533Z,18.20
2018-06-08T06:20:56.886Z,18.30
2018-06-08T06:25:01.198Z,18.50
2018-06-08T06:29:05.407Z,18.80
2018-06-08T06:33:09.733Z,19.10
2018-06-08T06:37:13.935Z,19.30
2018-06-08T06:41:18.195Z,19.50
2018-06-08T06:45:22.377Z,19.60
2018-06-08T06:49:26.647Z,19.70
2018-06-08T06:53:30.903Z,19.90
2018-06-08T06:57:36.213Z,19.90
2018-06-08T07:01:40.410Z,19.90
2018-06-08T07:05:45.862Z,20.00
2018-06-08T07:09:50.066Z,20.20
2018-06-08T07:17:58.033Z,20.60
2018-06-08T07:22:02.766Z,20.80
2018-06-08T07:26:07.093Z,20.90
2018-06-08T07:30:11.458Z,21.00
2018-06-08T07:34:15.714Z,21.30
2018-06-08T07:38:19.964Z,21.60
2018-06-08T07:42:24.217Z,21.90
2018-06-08T07:46:28.625Z,22.20
2018-06-08T07:54:36.526Z,22.90
2018-06-08T07:58:40.781Z,23.30
2018-06-08T08:02:44.985Z,23.50
2018-06-08T08:06:49.344Z,23.70
2018-06-08T08:10:53.532Z,23.80
2018-06-08T08:14:57.773Z,24.00
2018-06-08T08:19:02.113Z,23.40
2018-06-08T08:23:06.302Z,23.70
2018-06-08T08:27:10.504Z,23.90
2018-06-08T08:31:14.702Z,24.10
2018-06-08T08:35:18.850Z,24.30
2018-06-08T08:39:23.069Z,24.70
2018-06-08T08:43:27.216Z,24.60
2018-06-08T08:47:31.405Z,25.00
2018-06-08T08:51:36.784Z,25.30
2018-06-08T08:55:40.949Z,25.10
2018-06-08T08:59:45.579Z,26.00
2018-06-08T09:03:49.783Z,27.40
2018-06-08T09:07:53.916Z,28.50
2018-06-08T09:11:58.085Z,29.00
2018-06-08T09:16:02.181Z,28.60
2018-06-08T09:20:06.505Z,29.20
2018-06-08T09:24:10.731Z,29.40
2018-06-08T09:28:14.971Z,29.70
2018-06-08T09:32:19.095Z,29.90
2018-06-08T09:36:23.364Z,28.50
2018-06-08T09:40:27.533Z,28.50
2018-06-08T09:44:31.713Z,29.20
2018-06-08T09:48:35.852Z,29.80
2018-06-08T09:52:40.039Z,30.30
2018-06-08T09:56:44.190Z,29.60
2018-06-08T10:00:48.373Z,29.00
2018-06-08T10:04:52.621Z,29.70
2018-06-08T10:08:56.764Z,28.50
2018-06-08T10:13:00.965Z,29.80
2018-06-08T10:17:05.296Z,31.20
2018-06-08T10:21:09.413Z,30.80
2018-06-08T10:25:13.652Z,30.10
2018-06-08T10:29:17.797Z,29.50
2018-06-08T10:33:22.024Z,30.10
2018-06-08T10:37:26.295Z,30.80
2018-06-08T10:41:30.403Z,30.40
2018-06-08T10:45:34.627Z,30.40
2018-06-08T10:49:38.844Z,30.50
2018-06-08T10:53:43.076Z,30.80
2018-06-08T10:57:47.220Z,30.70
2018-06-08T11:01:51.346Z,31.40
2018-06-08T11:05:56.545Z,32.10
2018-06-08T11:10:00.757Z,32.10
2018-06-08T11:14:04.941Z,30.70
2018-06-08T11:18:09.090Z,31.30
2018-06-08T11:22:13.310Z,31.00
2018-06-08T11:26:17.844Z,31.60
2018-06-08T11:30:22.087Z,33.10
2018-06-08T11:34:26.236Z,33.00
2018-06-08T11:38:30.426Z,32.90
2018-06-08T11:42:34.639Z,33.20
2018-06-08T11:46:38.914Z,33.50
2018-06-08T11:50:43.108Z,33.50
2018-06-08T11:54:47.338Z,33.00
2018-06-08T11:58:51.486Z,33.80
2018-06-08T12:02:55.677Z,33.20
2018-06-08T12:07:00.073Z,34.90
2018-06-08T12:11:04.247Z,33.90
2018-06-08T12:15:08.395Z,33.60
2018-06-08T12:19:12.722Z,34.60
2018-06-08T12:23:16.944Z,35.00
2018-06-08T12:27:23.753Z,35.60
2018-06-08T12:31:28.272Z,35.50
2018-06-08T12:35:32.502Z,35.50
2018-06-08T12:39:36.768Z,35.10
2018-06-08T12:43:41.100Z,37.00
2018-06-08T12:47:45.690Z,36.10
2018-06-08T12:51:50.000Z,35.90
2018-06-08T12:55:54.335Z,35.70
2018-06-08T13:04:02.284Z,36.10
2018-06-08T13:08:06.574Z,36.20
2018-06-08T13:12:10.833Z,35.80
2018-06-08T13:16:15.102Z,36.10
2018-06-08T13:20:19.426Z,36.60
2018-06-08T13:24:23.720Z,38.00
2018-06-08T13:28:28.161Z,37.30
2018-06-08T13:32:32.529Z,36.00
2018-06-08T13:36:37.829Z,37.20
2018-06-08T13:40:42.263Z,36.80
2018-06-08T13:44:46.475Z,35.30
2018-06-08T13:48:50.856Z,33.90
2018-06-08T13:52:55.083Z,34.10
2018-06-08T13:56:59.380Z,33.90
2018-06-08T14:01:03.600Z,34.90
2018-06-08T14:05:07.938Z,34.90
2018-06-08T14:09:12.611Z,34.60
2018-06-08T14:13:17.066Z,36.50
2018-06-08T14:17:21.386Z,36.90
2018-06-08T14:21:25.792Z,36.50
2018-06-08T14:25:30.045Z,36.80
2018-06-08T14:29:34.619Z,35.30
2018-06-08T14:33:39.043Z,35.20
2018-06-08T14:37:43.249Z,33.70
2018-06-08T14:41:47.733Z,33.20
2018-06-08T14:45:51.954Z,34.10
2018-06-08T14:49:56.188Z,33.70
2018-06-08T14:54:00.450Z,32.30
2018-06-08T14:58:04.872Z,31.00
2018-06-08T15:02:09.061Z,29.60
2018-06-08T15:06:13.474Z,28.70
2018-06-08T15:10:17.674Z,28.40
2018-06-08T15:14:22.164Z,28.30
2018-06-08T15:22:30.800Z,27.80
2018-06-08T15:26:35.105Z,27.70
2018-06-08T15:30:39.576Z,27.10
2018-06-08T15:34:43.844Z,26.60
2018-06-08T15:38:48.293Z,26.30
2018-06-08T15:46:56.927Z,25.80
2018-06-08T15:51:01.552Z,25.30
2018-06-08T15:55:06.183Z,25.00
2018-06-08T15:59:10.675Z,25.10
2018-06-08T16:03:15.248Z,25.00
2018-06-08T16:07:19.724Z,24.70
2018-06-08T16:11:26.019Z,24.50
2018-06-08T16:15:30.477Z,24.40
2018-06-08T16:19:34.732Z,24.10
2018-06-08T16:23:39.761Z,24.00
2018-06-08T16:27:44.055Z,24.00
2018-06-08T16:31:48.554Z,24.00
2018-06-08T16:35:53.143Z,23.60
2018-06-08T16:39:57.317Z,23.50
2018-06-08T16:44:03.022Z,23.20
2018-06-08T16:48:07.531Z,23.10
2018-06-08T16:52:12.183Z,22.50
2018-06-08T16:56:16.556Z,22.00
2018-06-08T17:00:20.784Z,21.50
2018-06-08T17:04:25.215Z,21.20
2018-06-08T17:08:29.492Z,20.90
2018-06-08T17:12:33.846Z,20.90
2018-06-08T17:16:38.440Z,20.80
2018-06-08T17:52:50.400Z,19.70
2018-06-08T17:56:55.028Z,19.50
2018-06-08T18:01:00.959Z,19.40
2018-06-08T18:05:06.273Z,19.40
2018-06-08T18:09:10.945Z,19.40
2018-06-08T18:13:15.326Z,19.60
2018-06-08T18:17:19.669Z,19.70
2018-06-08T18:21:29.078Z,19.60
2018-06-08T18:25:34.389Z,19.70
2018-06-08T18:33:43.701Z,19.60
2018-06-08T18:37:48.636Z,19.50
2018-06-08T18:41:53.652Z,19.40
2018-06-08T18:45:58.101Z,19.20
2018-06-08T18:50:03.827Z,19.00
2018-06-08T18:54:08.752Z,18.80
2018-06-08T18:58:13.267Z,18.50
2018-06-08T19:02:18.786Z,18.50
2018-06-08T19:06:23.017Z,18.40
2018-06-08T19:10:27.762Z,18.40
2018-06-08T19:14:32.152Z,18.30
2018-06-08T19:22:40.989Z,17.90
2018-06-08T19:26:45.580Z,17.80
2018-06-08T19:30:49.934Z,17.80
2018-06-08T19:34:54.303Z,18.00
2018-06-08T19:38:58.719Z,18.00
2018-06-08T19:43:03.205Z,18.00
2018-06-08T19:47:09.692Z,18.00
2018-06-08T19:51:15.032Z,18.00
2018-06-08T19:55:19.549Z,18.00
2018-06-08T19:59:24.106Z,18.00
2018-06-08T20:03:28.905Z,17.90
2018-06-08T20:07:33.766Z,17.90
2018-06-08T20:11:38.852Z,18.00
2018-06-08T20:15:43.239Z,18.00
2018-06-08T20:19:48.538Z,18.00
2018-06-08T20:23:52.753Z,17.80
2018-06-08T20:27:57.051Z,17.60
2018-06-08T20:32:01.393Z,17.60
2018-06-08T20:36:05.798Z,17.50
2018-06-08T20:40:10.090Z,17.40
2018-06-08T20:44:14.376Z,17.50
2018-06-08T20:48:18.663Z,17.50
2018-06-08T20:52:22.948Z,17.50
2018-06-08T20:56:27.261Z,17.50
2018-06-08T21:00:31.539Z,17.50
2018-06-08T21:04:35.764Z,17.50
2018-06-08T21:08:40.253Z,17.40
2018-06-08T21:12:44.541Z,17.40
2018-06-08T21:16:48.852Z,17.50
2018-06-08T21:20:53.100Z,17.50
2018-06-08T21:24:57.411Z,17.50
2018-06-08T21:29:01.600Z,17.50
2018-06-08T21:33:05.971Z,17.40
2018-06-08T21:37:10.142Z,17.40
2018-06-08T21:41:14.397Z,17.50
2018-06-08T21:45:18.945Z,17.60
2018-06-08T21:49:23.143Z,17.60
2018-06-08T21:53:27.520Z,17.70
2018-06-08T21:57:31.764Z,17.70
2018-06-08T22:01:36.258Z,17.60
2018-06-08T22:05:40.757Z,17.50
2018-06-08T22:09:44.981Z,17.40
2018-06-08T22:13:49.504Z,17.30
2018-06-08T22:17:53.695Z,17.30
2018-06-08T22:21:58.030Z,17.20
2018-06-08T22:26:02.234Z,17.20
2018-06-08T22:30:06.669Z,17.20
2018-06-08T22:34:10.972Z,17.20
2018-06-08T22:38:15.245Z,17.20
2018-06-08T22:42:19.502Z,17.10
2018-06-08T22:46:23.881Z,17.10
2018-06-08T22:50:28.069Z,17.00
2018-06-08T22:54:32.404Z,17.00
2018-06-08T22:58:36.633Z,17.00
2018-06-08T23:02:41.134Z,17.00
2018-06-08T23:06:45.382Z,16.90
2018-06-08T23:10:49.715Z,16.80
2018-06-08T23:14:53.941Z,16.80
2018-06-08T23:18:58.233Z,16.70
2018-06-08T23:23:02.472Z,16.70
2018-06-08T23:27:06.845Z,16.50
2018-06-08T23:31:11.033Z,16.50
2018-06-08T23:35:15.366Z,16.50
2018-06-08T23:39:19.568Z,16.40
2018-06-08T23:43:23.764Z,16.40
2018-06-08T23:47:28.052Z,16.40
2018-06-08T23:51:32.251Z,16.30
2018-06-08T23:55:36.560Z,16.30
2018-06-08T23:59:40.774Z,16.40
